Morforte De Lemos, Spain
Current Conditions -  °F | °C
As of 9:30 PM on Saturday 20 Dec 2014 (Local Time) from LEST Reporting Station
Overcast Overcast  
Wind Chill: 54°   Ceiling: 2200
Heat Index: 54°   Visibility: 5mi
Dew Point: 52°   Wind: 2mph
Humidity: 94%   Direction: NA
Pressure: 30.56"   Gusts: NA
Location:  42.52°N, 7.5°W
Report Text: LEST 202030Z VRB02KT 8000 FEW005 OVC022 12/11 Q1035 NOSIG
Loading
Personal Weather Stations






























Interactive Weather Map New forecast layout! Learn more

10-Day Weather Forecast

Advertisements
Track Severe Weather on mobile